Time;durP1;ratioP1;P1;durP2;ratioP2;P2;SDS_P1;SDS_P2;PMS_P1;PMS_P2;Temp;Humidity;BMP_temperature;BMP_pressure;BME280_temperature;BME280_humidity;BME280_pressure;Samples;Min_cycle;Max_cycle;Signal;HPM_P1;HPM_P2
2023/03/02 00:02:21;;;;;;;37.38;19.70;;;;;;;1.73;100.00;102760.38;10373726;28;20531;-71
2023/03/02 00:07:25;;;;;;;36.67;19.10;;;;;;;1.68;100.00;102746.41;10413703;28;20037;-73
2023/03/02 00:12:26;;;;;;;33.33;19.30;;;;;;;1.69;100.00;102750.81;10397709;28;20036;-71
2023/03/02 00:17:26;;;;;;;37.63;19.33;;;;;;;1.70;100.00;102744.41;10389251;28;20046;-72
2023/03/02 00:22:27;;;;;;;32.08;18.70;;;;;;;1.69;100.00;102756.25;10315138;28;20120;-71
2023/03/02 00:27:28;;;;;;;33.35;20.10;;;;;;;1.66;100.00;102737.56;10335502;28;20041;-72
2023/03/02 00:32:29;;;;;;;35.40;19.77;;;;;;;1.71;100.00;102732.53;10355096;28;20460;-71
2023/03/02 00:37:29;;;;;;;36.20;20.17;;;;;;;1.69;100.00;102731.81;10355586;28;20073;-71
2023/03/02 00:42:30;;;;;;;41.97;20.63;;;;;;;1.54;100.00;102717.03;10350339;28;20043;-72
2023/03/02 00:47:34;;;;;;;42.85;21.33;;;;;;;1.54;100.00;102708.88;10318152;28;20041;-71
2023/03/02 00:52:35;;;;;;;39.90;20.83;;;;;;;1.60;100.00;102705.56;10354629;28;20117;-72
2023/03/02 00:57:35;;;;;;;43.30;23.85;;;;;;;1.57;100.00;102705.84;10355584;28;20048;-72
2023/03/02 01:02:42;;;;;;;42.30;22.63;;;;;;;1.48;100.00;102698.63;10339175;28;20049;-72
2023/03/02 01:07:43;;;;;;;43.65;22.63;;;;;;;1.39;100.00;102686.81;10334177;28;20042;-71
2023/03/02 01:12:43;;;;;;;42.67;22.48;;;;;;;1.40;100.00;102715.66;10313576;28;20042;-73
2023/03/02 01:17:45;;;;;;;51.97;26.50;;;;;;;1.36;100.00;102712.38;10329319;28;20049;-72
2023/03/02 01:22:46;;;;;;;49.47;22.33;;;;;;;1.35;100.00;102718.81;10313475;28;20042;-72
2023/03/02 01:27:46;;;;;;;52.55;24.80;;;;;;;1.30;100.00;102694.00;10339131;28;20049;-71
2023/03/02 01:32:47;;;;;;;47.75;23.42;;;;;;;1.24;100.00;102683.75;10412151;28;20412;-72
2023/03/02 01:37:47;;;;;;;49.67;25.58;;;;;;;1.25;100.00;102696.28;10361390;28;20049;-72
2023/03/02 01:42:51;;;;;;;50.40;23.58;;;;;;;1.04;100.00;102665.81;10377789;28;20041;-72
2023/03/02 01:47:51;;;;;;;47.83;21.85;;;;;;;1.14;100.00;102680.19;10409563;28;20040;-71
2023/03/02 01:52:52;;;;;;;46.22;21.10;;;;;;;1.09;100.00;102679.78;10393987;28;20038;-73
2023/03/02 01:57:53;;;;;;;53.13;24.58;;;;;;;1.08;100.00;102683.50;10307727;28;20046;-71
2023/03/02 02:02:54;;;;;;;48.97;23.52;;;;;;;0.93;100.00;102664.09;10279276;28;20042;-72
2023/03/02 02:07:54;;;;;;;52.70;24.40;;;;;;;0.80;100.00;102642.72;10280367;28;20042;-71
2023/03/02 02:12:54;;;;;;;52.17;24.60;;;;;;;0.86;100.00;102653.00;10353076;28;20116;-72
2023/03/02 02:17:55;;;;;;;60.38;27.08;;;;;;;0.93;100.00;102656.84;10314891;28;20038;-72
2023/03/02 02:23:18;;;;;;;59.13;27.20;;;;;;;0.86;100.00;102642.16;10370196;28;20457;-72
2023/03/02 02:28:33;;;;;;;61.50;26.58;;;;;;;1.00;100.00;102660.66;10410159;28;20063;-71
2023/03/02 02:33:33;;;;;;;59.67;27.25;;;;;;;1.00;100.00;102655.25;10394966;28;20041;-72
2023/03/02 02:38:34;;;;;;;62.28;29.98;;;;;;;1.00;100.00;102655.25;10390112;28;20083;-71
2023/03/02 02:43:34;;;;;;;67.22;28.50;;;;;;;0.98;100.00;102657.25;10337441;28;20102;-72
2023/03/02 02:48:35;;;;;;;64.13;26.95;;;;;;;0.86;100.00;102655.72;10311338;28;20045;-72
2023/03/02 02:53:42;;;;;;;73.03;29.00;;;;;;;0.88;100.00;102661.84;10312125;28;20038;-72
2023/03/02 02:58:46;;;;;;;70.30;29.88;;;;;;;0.89;100.00;102669.00;10318545;28;20049;-70
2023/03/02 03:03:51;;;;;;;75.65;30.38;;;;;;;0.88;100.00;102667.25;10343624;28;20069;-72
2023/03/02 03:08:54;;;;;;;78.23;29.47;;;;;;;0.87;100.00;102673.69;10342741;28;20504;-72
2023/03/02 03:13:59;;;;;;;87.47;31.85;;;;;;;0.71;100.00;102666.16;10407664;28;20053;-72
2023/03/02 03:19:23;;;;;;;130.02;35.70;;;;;;;0.71;100.00;102689.72;10366862;28;20049;-71
2023/03/02 03:24:24;;;;;;;97.20;36.00;;;;;;;0.67;100.00;102675.59;10317587;28;20038;-72
2023/03/02 03:29:25;;;;;;;88.97;34.72;;;;;;;0.63;100.00;102665.19;10302441;28;20043;-67
2023/03/02 03:34:26;;;;;;;92.45;33.42;;;;;;;0.58;100.00;102658.34;10333178;28;20113;-72
2023/03/02 03:39:28;;;;;;;164.50;36.70;;;;;;;0.39;100.00;102642.97;10395203;28;20163;-71
2023/03/02 03:44:29;;;;;;;119.82;35.38;;;;;;;0.33;100.00;102635.41;10399360;28;20030;-72
2023/03/02 03:49:29;;;;;;;107.55;36.05;;;;;;;0.50;100.00;102666.34;10381527;28;20030;-72
2023/03/02 03:54:29;;;;;;;120.57;36.25;;;;;;;0.46;100.00;102667.63;10416629;28;20049;-72
2023/03/02 03:59:30;;;;;;;116.28;38.20;;;;;;;0.41;100.00;102661.75;10382092;28;20033;-72
2023/03/02 04:04:32;;;;;;;114.88;38.67;;;;;;;0.40;100.00;102663.63;10381430;28;20060;-72
2023/03/02 04:09:36;;;;;;;114.57;38.40;;;;;;;0.48;100.00;102671.03;10380062;28;20037;-72
2023/03/02 04:14:37;;;;;;;113.90;39.58;;;;;;;0.50;100.00;102662.78;10397067;28;20048;-71
2023/03/02 04:19:37;;;;;;;130.93;39.10;;;;;;;0.43;100.00;102659.75;10396430;28;20520;-71
2023/03/02 04:24:38;;;;;;;121.55;37.63;;;;;;;0.41;100.00;102648.22;10413073;28;20036;-72
2023/03/02 04:29:38;;;;;;;132.38;42.90;;;;;;;0.31;100.00;102641.94;10413552;28;20687;-72
2023/03/02 04:34:39;;;;;;;134.82;40.30;;;;;;;0.31;100.00;102636.53;10412397;28;20069;-72
2023/03/02 04:39:39;;;;;;;109.50;35.28;;;;;;;0.43;100.00;102657.06;10395693;28;20052;-71
2023/03/02 04:44:40;;;;;;;118.32;38.20;;;;;;;0.46;100.00;102655.94;10396542;28;20041;-71
2023/03/02 04:49:40;;;;;;;106.35;38.78;;;;;;;0.47;100.00;102663.03;10414297;28;20049;-68
2023/03/02 04:54:41;;;;;;;116.43;37.40;;;;;;;0.43;100.00;102643.50;10413204;28;20456;-71
2023/03/02 04:59:41;;;;;;;109.55;36.13;;;;;;;0.53;100.00;102657.91;10379041;28;20149;-72
2023/03/02 05:04:42;;;;;;;119.65;35.03;;;;;;;0.50;100.00;102650.06;10394826;28;20056;-72
2023/03/02 05:09:42;;;;;;;124.95;36.30;;;;;;;0.40;100.00;102658.19;10410958;28;20083;-72
2023/03/02 05:14:43;;;;;;;93.72;34.28;;;;;;;0.43;100.00;102657.06;10378757;28;20041;-72
2023/03/02 05:19:43;;;;;;;96.85;36.65;;;;;;;0.54;100.00;102667.75;10392217;28;20041;-72
2023/03/02 05:24:44;;;;;;;109.88;35.17;;;;;;;0.55;100.00;102666.75;10369929;28;20030;-72
2023/03/02 05:29:44;;;;;;;108.05;35.60;;;;;;;-0.56;100.00;102505.56;10410182;28;20053;-72
2023/03/02 05:34:45;;;;;;;156.65;31.85;;;;;;;0.49;100.00;102690.84;10393190;28;20038;-72
2023/03/02 05:39:45;;;;;;;90.82;29.85;;;;;;;0.23;100.00;102650.81;10393669;28;20045;-72
2023/03/02 05:44:45;;;;;;;118.55;30.05;;;;;;;0.31;100.00;102675.31;10378521;28;20576;-72
2023/03/02 05:49:46;;;;;;;114.13;29.85;;;;;;;0.29;100.00;102679.16;10377902;28;20034;-72
2023/03/02 05:54:46;;;;;;;102.95;30.50;;;;;;;0.30;100.00;102672.75;10393194;28;20041;-72
2023/03/02 05:59:49;;;;;;;78.85;26.98;;;;;;;0.32;100.00;102670.75;10391912;28;20045;-72
2023/03/02 06:04:50;;;;;;;108.45;28.35;;;;;;;0.19;100.00;102655.63;10409862;28;20041;-72
2023/03/02 06:09:50;;;;;;;82.32;28.63;;;;;;;0.16;100.00;102661.31;10377221;28;20033;-72
2023/03/02 06:14:51;;;;;;;85.53;30.17;;;;;;;0.16;100.00;102661.31;10409808;28;20046;-72
2023/03/02 06:19:51;;;;;;;87.45;29.17;;;;;;;0.19;100.00;102660.22;10410783;28;20045;-72
2023/03/02 06:24:54;;;;;;;81.10;31.00;;;;;;;0.14;100.00;102666.03;10393071;28;20033;-72
2023/03/02 06:29:54;;;;;;;106.03;30.55;;;;;;;0.03;100.00;102658.06;10406460;28;20068;-72
2023/03/02 06:34:55;;;;;;;101.32;30.30;;;;;;;0.01;100.00;102659.19;10396042;28;20049;-72
2023/03/02 06:39:56;;;;;;;91.80;27.65;;;;;;;0.03;100.00;102677.00;10383632;28;20045;-72
2023/03/02 06:44:56;;;;;;;98.43;29.98;;;;;;;-0.19;100.00;102655.59;10417396;28;20064;-72
2023/03/02 06:49:57;;;;;;;102.88;32.33;;;;;;;-0.14;100.00;102669.59;10415927;28;20044;-73
2023/03/02 06:54:57;;;;;;;88.20;29.88;;;;;;;-0.20;100.00;102649.34;10416598;28;20038;-72
2023/03/02 06:59:59;;;;;;;76.63;29.48;;;;;;;-0.14;100.00;102666.88;10399902;28;20044;-72
2023/03/02 07:05:00;;;;;;;76.40;30.23;;;;;;;0.00;100.00;102677.31;10416002;28;20042;-72
2023/03/02 07:10:00;;;;;;;79.97;31.05;;;;;;;0.04;100.00;102677.84;10414054;28;20041;-73
2023/03/02 07:15:01;;;;;;;101.43;33.33;;;;;;;-0.10;100.00;102655.63;10383297;28;20498;-72
2023/03/02 07:20:04;;;;;;;108.32;29.95;;;;;;;0.02;100.00;102664.44;10415825;28;20097;-72
2023/03/02 07:25:05;;;;;;;78.82;31.27;;;;;;;0.16;100.00;102668.59;10382851;28;20555;-72
2023/03/02 07:30:06;;;;;;;83.88;31.45;;;;;;;0.27;100.00;102662.19;10413411;28;20097;-74
2023/03/02 07:35:07;;;;;;;86.00;31.08;;;;;;;0.25;100.00;102661.47;10396486;28;20057;-73
2023/03/02 07:40:10;;;;;;;67.47;27.95;;;;;;;0.32;100.00;102671.59;10381651;28;20041;-72
2023/03/02 07:45:10;;;;;;;75.10;29.77;;;;;;;0.25;100.00;102665.06;10414298;28;20045;-72
2023/03/02 07:50:11;;;;;;;70.78;28.10;;;;;;;0.37;100.00;102674.75;10369019;28;20062;-72
2023/03/02 07:55:11;;;;;;;63.72;26.35;;;;;;;0.48;100.00;102672.91;10345954;28;20045;-72
2023/03/02 08:00:12;;;;;;;76.50;27.45;;;;;;;0.44;100.00;102657.94;10345636;28;20050;-69
2023/03/02 08:05:13;;;;;;;71.57;28.25;;;;;;;0.47;100.00;102652.22;10393424;28;22262;-72
2023/03/02 08:10:14;;;;;;;65.43;27.55;;;;;;;0.69;100.00;102656.47;10395446;28;20030;-71
2023/03/02 08:15:14;;;;;;;60.60;25.52;;;;;;;0.82;100.00;102642.59;10376521;28;20539;-72
2023/03/02 08:20:15;;;;;;;61.22;25.08;;;;;;;0.97;100.00;102666.41;10376188;28;20053;-71
2023/03/02 08:25:15;;;;;;;65.15;26.88;;;;;;;0.99;100.00;102656.25;10390718;28;20029;-72
2023/03/02 08:30:16;;;;;;;59.72;23.17;;;;;;;0.65;100.00;102587.28;10360264;28;20037;-72
2023/03/02 08:35:16;;;;;;;57.13;22.42;;;;;;;1.03;100.00;102648.66;10394451;28;20668;-72
2023/03/02 08:40:16;;;;;;;53.13;23.73;;;;;;;1.03;100.00;102647.81;10356719;28;20050;-71
2023/03/02 08:45:19;;;;;;;51.53;21.73;;;;;;;1.02;100.00;102646.97;10351951;28;20046;-72
2023/03/02 08:50:20;;;;;;;50.70;23.58;;;;;;;1.13;100.00;102622.34;10356074;28;20038;-71
2023/03/02 08:55:21;;;;;;;46.75;21.10;;;;;;;1.42;100.00;102649.34;10354696;28;20048;-71
2023/03/02 09:00:21;;;;;;;53.03;21.23;;;;;;;1.50;100.00;102634.19;10373384;28;20042;-71
2023/03/02 09:05:22;;;;;;;55.35;20.70;;;;;;;1.56;100.00;102633.59;10343660;28;20051;-71
2023/03/02 09:10:22;;;;;;;58.55;21.40;;;;;;;1.73;100.00;102640.91;10356928;28;20041;-72
2023/03/02 09:15:22;;;;;;;50.25;19.52;;;;;;;1.92;100.00;102628.19;10374058;28;20041;-71
2023/03/02 09:20:23;;;;;;;42.00;20.13;;;;;;;2.28;100.00;102631.78;10389741;28;20044;-71
2023/03/02 09:25:24;;;;;;;43.65;19.77;;;;;;;2.51;100.00;102623.97;10410764;28;20033;-72
2023/03/02 09:30:24;;;;;;;37.00;17.70;;;;;;;2.62;100.00;102621.03;10410686;28;20033;-71
2023/03/02 09:35:25;;;;;;;35.53;16.90;;;;;;;2.66;100.00;102620.69;10393097;28;20696;-73
2023/03/02 09:40:26;;;;;;;36.83;17.50;;;;;;;2.47;100.00;102606.28;10393329;28;20405;-72
2023/03/02 09:45:37;;;;;;;31.17;16.48;;;;;;;2.63;100.00;102622.72;10393418;28;20045;-71
2023/03/02 09:50:50;;;;;;;28.60;14.88;;;;;;;2.89;100.00;102615.56;10408574;28;20057;-71
2023/03/02 09:55:59;;;;;;;29.30;14.25;;;;;;;3.14;100.00;102619.28;10393117;28;20052;-72
2023/03/02 10:01:00;;;;;;;32.40;14.68;;;;;;;3.36;100.00;102626.88;10409495;28;20068;-71
2023/03/02 10:06:00;;;;;;;31.98;14.95;;;;;;;3.35;100.00;102610.69;10392630;28;20059;-71
2023/03/02 10:11:15;;;;;;;25.02;15.15;;;;;;;3.53;100.00;102629.66;10360767;28;20034;-71
2023/03/02 10:16:30;;;;;;;25.70;14.40;;;;;;;3.43;100.00;102613.44;10389022;28;20053;-71
2023/03/02 10:21:39;;;;;;;31.20;15.15;;;;;;;3.46;100.00;102634.06;10369882;28;20037;-71
2023/03/02 10:26:40;;;;;;;26.73;14.15;;;;;;;3.44;100.00;102637.81;10369009;28;20406;-71
2023/03/02 10:31:42;;;;;;;26.63;14.25;;;;;;;3.50;100.00;102635.44;10351914;28;20046;-70
2023/03/02 10:36:42;;;;;;;27.50;14.32;;;;;;;3.54;100.00;102623.22;10402205;28;20128;-71
2023/03/02 10:41:57;;;;;;;29.60;16.25;;;;;;;3.47;100.00;102631.16;10391111;28;20612;-70
2023/03/02 10:46:58;;;;;;;31.70;15.57;;;;;;;3.49;100.00;102633.72;10391672;28;20116;-71
2023/03/02 10:52:02;;;;;;;34.33;16.85;;;;;;;3.74;100.00;102637.38;10408187;28;20120;-71
2023/03/02 10:57:05;;;;;;;30.38;14.80;;;;;;;3.69;100.00;102607.09;10408114;28;20069;-70
2023/03/02 11:02:14;;;;;;;25.75;13.57;;;;;;;3.98;100.00;102623.81;10357529;28;20046;-70
2023/03/02 11:07:18;;;;;;;29.08;15.07;;;;;;;3.94;100.00;102621.59;10389584;28;20034;-71
2023/03/02 11:12:19;;;;;;;25.67;12.70;;;;;;;4.02;100.00;102625.19;10408845;28;20029;-72
2023/03/02 11:17:33;;;;;;;23.50;11.82;;;;;;;4.29;100.00;102616.88;10394060;28;20040;-71
2023/03/02 11:23:12;;;;;;;22.55;11.77;;;;;;;4.27;100.00;102603.41;10399761;28;20032;-71
2023/03/02 11:28:55;;;;;;;19.42;10.23;;;;;;;4.43;100.00;102597.13;10357372;28;20061;-71
2023/03/02 11:34:05;;;;;;;24.13;12.75;;;;;;;4.26;100.00;102599.00;10388515;28;20045;-71
2023/03/02 11:39:08;;;;;;;21.90;11.43;;;;;;;4.44;100.00;102596.06;10398797;28;20037;-70
2023/03/02 11:44:14;;;;;;;22.70;11.10;;;;;;;4.80;100.00;102587.53;10382371;28;20587;-70
2023/03/02 11:49:21;;;;;;;22.55;11.73;;;;;;;5.12;100.00;102566.59;10415189;28;20458;-70
2023/03/02 11:54:28;;;;;;;22.33;11.43;;;;;;;5.22;100.00;102584.47;10398340;28;20095;-70
2023/03/02 11:59:28;;;;;;;20.30;10.95;;;;;;;5.70;100.00;102587.13;10397649;28;20052;-71
2023/03/02 12:04:33;;;;;;;22.92;12.60;;;;;;;5.79;100.00;102579.75;10370673;28;20057;-72
2023/03/02 12:09:35;;;;;;;21.70;12.73;;;;;;;5.72;100.00;102579.59;10395092;28;20034;-72
2023/03/02 12:14:38;;;;;;;21.25;10.95;;;;;;;5.39;100.00;102576.22;10396987;28;20134;-71
2023/03/02 12:19:39;;;;;;;18.95;10.75;;;;;;;5.19;100.00;102573.06;10380615;28;20037;-71
2023/03/02 12:24:42;;;;;;;18.48;10.40;;;;;;;5.27;100.00;102575.75;10434933;28;20108;-72
2023/03/02 12:29:47;;;;;;;20.15;11.20;;;;;;;5.35;100.00;102567.50;10378659;28;20033;-71
2023/03/02 12:34:55;;;;;;;17.30;9.90;;;;;;;4.95;100.00;102566.66;10437151;28;20041;-72
2023/03/02 12:39:58;;;;;;;17.23;10.57;;;;;;;4.74;100.00;102580.03;10454192;28;20045;-72
2023/03/02 12:45:26;;;;;;;18.42;9.88;;;;;;;5.04;100.00;102571.09;10373216;28;20110;-71
2023/03/02 12:50:29;;;;;;;16.17;9.43;;;;;;;5.88;100.00;102550.47;10395799;28;20040;-72
2023/03/02 12:55:29;;;;;;;16.80;10.00;;;;;;;6.50;100.00;102539.38;10395791;28;20126;-71
2023/03/02 13:00:31;;;;;;;17.17;9.05;;;;;;;6.40;100.00;102517.75;10393961;28;20104;-72
2023/03/02 13:05:33;;;;;;;15.65;9.52;;;;;;;6.36;100.00;102524.63;10411662;28;20053;-71
2023/03/02 13:10:39;;;;;;;16.52;10.07;;;;;;;7.87;100.00;102501.28;10379532;28;20057;-71
2023/03/02 13:15:59;;;;;;;14.52;8.95;;;;;;;9.67;100.00;102476.72;10376642;28;20098;-72
2023/03/02 13:21:00;;;;;;;13.68;8.70;;;;;;;11.14;100.00;102454.50;10395100;28;20039;-73
2023/03/02 13:26:02;;;;;;;15.25;9.55;;;;;;;11.96;100.00;102462.91;10355625;28;20049;-73
2023/03/02 13:31:04;;;;;;;14.32;8.75;;;;;;;12.19;100.00;102449.31;10391695;28;20037;-74
2023/03/02 13:36:05;;;;;;;13.18;9.05;;;;;;;12.39;100.00;102437.25;10411912;28;20034;-73
2023/03/02 13:41:06;;;;;;;14.60;9.48;;;;;;;12.26;100.00;102447.38;10409564;28;20049;-71
2023/03/02 13:46:25;;;;;;;12.18;9.00;;;;;;;13.04;100.00;102440.31;10409705;28;20362;-71
2023/03/02 13:51:28;;;;;;;12.88;8.95;;;;;;;12.93;98.20;102430.03;10408742;28;20056;-71
2023/03/02 13:56:33;;;;;;;12.40;8.38;;;;;;;13.26;99.19;102417.69;10393493;28;20060;-72
2023/03/02 14:01:33;;;;;;;12.48;8.45;;;;;;;13.79;94.11;102410.50;10373773;28;20063;-72
2023/03/02 14:06:34;;;;;;;11.45;8.23;;;;;;;14.22;93.86;102401.88;10371353;28;20113;-72
2023/03/02 14:11:39;;;;;;;12.88;9.02;;;;;;;14.51;92.27;102385.31;10373837;28;20029;-71
2023/03/02 14:16:40;;;;;;;11.50;8.27;;;;;;;13.90;88.72;102369.00;10384751;28;20049;-72
2023/03/02 14:21:42;;;;;;;10.48;7.90;;;;;;;13.53;91.70;102383.03;10450039;28;20029;-73
2023/03/02 14:26:43;;;;;;;10.95;7.53;;;;;;;13.45;92.51;102374.22;10394658;28;20120;-72
2023/03/02 14:31:44;;;;;;;9.77;7.28;;;;;;;13.85;91.54;102377.19;10376792;28;20060;-71
2023/03/02 14:36:46;;;;;;;10.75;7.95;;;;;;;14.40;90.27;102370.41;10376580;28;20088;-73
2023/03/02 14:41:48;;;;;;;10.85;8.20;;;;;;;14.49;90.49;102362.53;10392930;28;20041;-72
2023/03/02 14:46:48;;;;;;;12.32;8.15;;;;;;;14.51;88.76;102368.69;10391852;28;20033;-72
2023/03/02 14:52:00;;;;;;;11.98;8.13;;;;;;;13.93;90.90;102382.38;10412015;28;20056;-72
2023/03/02 14:57:00;;;;;;;17.73;8.80;;;;;;;14.02;89.27;102357.09;10416636;28;20030;-70
2023/03/02 15:02:01;;;;;;;14.98;9.02;;;;;;;13.81;88.49;102370.44;10400528;28;20409;-71
2023/03/02 15:07:01;;;;;;;13.50;8.80;;;;;;;12.69;90.56;102373.78;10399468;28;20034;-72
2023/03/02 15:12:02;;;;;;;12.60;8.15;;;;;;;11.76;93.56;102396.81;10382584;28;20029;-71
2023/03/02 15:17:03;;;;;;;11.55;8.05;;;;;;;11.19;95.66;102386.63;10398148;28;20056;-72
2023/03/02 15:22:03;;;;;;;10.35;7.53;;;;;;;10.70;98.96;102382.63;10382098;28;20044;-75
2023/03/02 15:27:04;;;;;;;10.52;7.22;;;;;;;10.25;100.00;102375.13;10399486;28;20037;-74
2023/03/02 15:32:04;;;;;;;9.90;6.63;;;;;;;10.22;100.00;102405.81;10415198;28;20034;-71
2023/03/02 15:37:05;;;;;;;10.52;6.88;;;;;;;9.96;100.00;102403.94;10397359;28;20060;-72
2023/03/02 15:42:05;;;;;;;12.07;7.07;;;;;;;10.32;100.00;102396.31;10398662;28;20056;-72
2023/03/02 15:47:06;;;;;;;12.23;7.30;;;;;;;10.09;100.00;102378.34;10412868;28;20117;-72
2023/03/02 15:52:06;;;;;;;12.52;6.95;;;;;;;9.41;100.00;102390.41;10397345;28;20033;-82
2023/03/02 15:57:08;;;;;;;13.48;8.25;;;;;;;9.09;100.00;102394.78;10414965;28;20049;-82
2023/03/02 16:02:09;;;;;;;12.95;8.10;;;;;;;8.25;100.00;102406.84;10355659;28;20033;-83
2023/03/02 16:07:10;;;;;;;14.23;8.27;;;;;;;7.10;100.00;102399.72;10339470;28;20038;-82
2023/03/02 16:12:10;;;;;;;15.48;9.52;;;;;;;6.42;100.00;102411.72;10323776;28;20034;-81
2023/03/02 16:17:11;;;;;;;13.88;8.80;;;;;;;5.99;100.00;102414.22;10353887;28;20053;-85
2023/03/02 16:22:11;;;;;;;14.18;7.43;;;;;;;5.65;100.00;102406.50;10338418;28;20054;-82
2023/03/02 16:27:12;;;;;;;14.35;6.78;;;;;;;5.13;100.00;102366.28;10339569;28;20037;-79
2023/03/02 16:32:12;;;;;;;10.77;6.40;;;;;;;5.24;100.00;102434.13;10373449;28;20045;-82
2023/03/02 16:37:12;;;;;;;9.35;6.25;;;;;;;5.00;100.00;102432.38;10411933;28;20056;-78
2023/03/02 16:42:13;;;;;;;12.75;7.40;;;;;;;4.82;100.00;102435.38;10355351;28;20483;-83
2023/03/02 16:47:13;;;;;;;10.77;6.30;;;;;;;4.60;100.00;102432.38;10372730;28;20367;-82
2023/03/02 16:52:14;;;;;;;12.57;7.28;;;;;;;4.44;100.00;102438.78;10354579;28;20072;-86
2023/03/02 16:57:14;;;;;;;14.23;7.88;;;;;;;4.29;100.00;102447.84;10372452;28;20056;-85
2023/03/02 17:02:15;;;;;;;10.90;6.68;;;;;;;3.72;100.00;102397.88;10371252;28;20038;-85
2023/03/02 17:07:15;;;;;;;13.77;7.45;;;;;;;3.92;100.00;102454.72;10391442;28;20087;-84
2023/03/02 17:12:16;;;;;;;13.52;7.22;;;;;;;3.76;100.00;102470.06;10395435;28;20038;-77
2023/03/02 17:17:16;;;;;;;13.20;7.82;;;;;;;3.64;100.00;102476.84;10376534;28;20037;-71
2023/03/02 17:22:17;;;;;;;16.98;8.85;;;;;;;3.46;100.00;102473.44;10395156;28;20048;-70
2023/03/02 17:27:17;;;;;;;19.77;10.32;;;;;;;3.23;100.00;102460.44;10441170;28;20029;-70
2023/03/02 17:32:18;;;;;;;18.27;9.38;;;;;;;3.18;100.00;102481.84;10405897;28;20053;-72
2023/03/02 17:37:18;;;;;;;17.20;11.15;;;;;;;3.12;100.00;102485.25;10441129;28;20048;-71
2023/03/02 17:42:19;;;;;;;20.40;10.55;;;;;;;2.91;100.00;102472.94;10413340;28;20059;-71
2023/03/02 17:47:19;;;;;;;19.83;12.23;;;;;;;2.88;100.00;102497.75;10392324;28;20127;-69
2023/03/02 17:52:20;;;;;;;20.40;11.27;;;;;;;2.73;100.00;102492.09;10404573;28;20040;-69
2023/03/02 17:57:21;;;;;;;20.95;13.23;;;;;;;2.66;100.00;102495.59;10440939;28;20056;-69
2023/03/02 18:02:22;;;;;;;23.63;12.88;;;;;;;2.48;100.00;102491.09;10433678;28;20061;-69
2023/03/02 18:07:22;;;;;;;22.90;13.88;;;;;;;2.42;100.00;102508.06;10432634;28;20037;-69
2023/03/02 18:12:23;;;;;;;26.40;15.80;;;;;;;2.29;100.00;102515.78;10408091;28;20585;-69
2023/03/02 18:17:23;;;;;;;30.27;15.63;;;;;;;2.12;100.00;102502.06;10447129;28;20041;-69
2023/03/02 18:22:24;;;;;;;28.08;15.32;;;;;;;2.11;100.00;102519.38;10385821;28;20044;-69
2023/03/02 18:27:24;;;;;;;29.75;16.55;;;;;;;2.03;100.00;102519.31;10385064;28;20052;-69
2023/03/02 18:32:25;;;;;;;28.58;16.15;;;;;;;1.85;100.00;102510.34;10410920;28;20034;-70
2023/03/02 18:37:25;;;;;;;33.00;17.92;;;;;;;1.67;100.00;102516.63;10416136;28;20405;-68
2023/03/02 18:42:26;;;;;;;35.92;18.80;;;;;;;1.60;100.00;102519.09;10402180;28;20040;-70
2023/03/02 18:47:27;;;;;;;37.22;20.90;;;;;;;1.61;100.00;102528.09;10413661;28;20083;-69
2023/03/02 18:52:27;;;;;;;37.25;21.48;;;;;;;1.53;100.00;102526.16;10409458;28;20466;-69
2023/03/02 18:57:28;;;;;;;36.90;21.38;;;;;;;1.75;100.00;102541.13;10386586;28;20481;-72
2023/03/02 19:02:28;;;;;;;42.72;22.55;;;;;;;1.83;100.00;102542.22;10371107;28;20050;-69
2023/03/02 19:07:29;;;;;;;40.97;22.40;;;;;;;1.84;100.00;102538.50;10394389;28;20535;-70
2023/03/02 19:12:29;;;;;;;40.90;22.65;;;;;;;1.83;100.00;102540.38;10393819;28;20073;-69
2023/03/02 19:17:30;;;;;;;43.58;22.23;;;;;;;1.58;100.00;102480.41;10405090;28;20095;-69
2023/03/02 19:22:31;;;;;;;43.80;22.42;;;;;;;1.96;100.00;102549.00;10377456;28;20057;-68
2023/03/02 19:27:32;;;;;;;43.17;22.80;;;;;;;1.85;100.00;102534.78;10354760;28;20053;-69
2023/03/02 19:32:32;;;;;;;38.22;22.45;;;;;;;1.97;100.00;102566.13;10380562;28;20045;-68
2023/03/02 19:37:33;;;;;;;39.47;21.80;;;;;;;1.81;100.00;102539.66;10450843;28;20084;-69
2023/03/02 19:42:35;;;;;;;40.65;21.02;;;;;;;1.91;100.00;102561.31;10421479;28;20037;-69
2023/03/02 19:47:35;;;;;;;38.58;20.48;;;;;;;1.90;100.00;102554.16;10437563;28;20050;-69
2023/03/02 19:52:37;;;;;;;38.55;18.75;;;;;;;1.87;100.00;102558.06;10375970;28;20041;-69
2023/03/02 19:57:38;;;;;;;37.33;17.38;;;;;;;1.84;100.00;102549.34;10417193;28;20101;-69
2023/03/02 20:02:39;;;;;;;32.05;17.58;;;;;;;1.78;100.00;102542.72;10422213;28;20041;-69
2023/03/02 20:07:40;;;;;;;35.42;16.92;;;;;;;1.83;100.00;102558.53;10421594;28;20041;-69
2023/03/02 20:12:41;;;;;;;31.35;17.20;;;;;;;1.79;100.00;102566.13;10420834;28;20116;-69
2023/03/02 20:17:42;;;;;;;29.63;15.38;;;;;;;1.65;100.00;102556.63;10436584;28;20061;-68
2023/03/02 20:22:44;;;;;;;29.30;16.77;;;;;;;1.67;100.00;102570.06;10406247;28;20147;-68
2023/03/02 20:27:48;;;;;;;25.75;14.77;;;;;;;1.56;100.00;102588.28;10453289;28;20044;-69
2023/03/02 20:32:48;;;;;;;27.00;13.98;;;;;;;1.43;100.00;102568.81;10436909;28;20037;-68
2023/03/02 20:37:49;;;;;;;28.60;15.55;;;;;;;1.35;100.00;102575.00;10439927;28;20115;-69
2023/03/02 20:42:49;;;;;;;29.30;16.33;;;;;;;1.38;100.00;102587.38;10418604;28;20551;-69
2023/03/02 20:47:50;;;;;;;29.58;15.20;;;;;;;1.28;100.00;102582.03;10418613;28;20052;-69
2023/03/02 20:52:51;;;;;;;28.65;15.32;;;;;;;1.26;100.00;102578.63;10435999;28;20464;-68
2023/03/02 20:57:53;;;;;;;29.33;15.15;;;;;;;1.34;100.00;102597.69;10452150;28;20037;-70
2023/03/02 21:02:53;;;;;;;33.63;16.52;;;;;;;1.37;100.00;102597.41;10435618;28;20041;-68
2023/03/02 21:07:54;;;;;;;32.42;15.45;;;;;;;1.47;100.00;102594.66;10405709;28;20032;-68
2023/03/02 21:12:54;;;;;;;30.58;16.25;;;;;;;1.50;100.00;102597.03;10421033;28;20041;-69
2023/03/02 21:17:55;;;;;;;25.42;14.07;;;;;;;1.46;100.00;102592.91;10418753;28;20049;-69
2023/03/02 21:22:55;;;;;;;24.52;14.98;;;;;;;1.35;100.00;102583.13;10453556;28;20391;-69
2023/03/02 21:27:56;;;;;;;28.88;15.02;;;;;;;1.34;100.00;102575.13;10417782;28;20040;-69
2023/03/02 21:32:56;;;;;;;29.73;15.57;;;;;;;1.42;100.00;102577.94;10412858;28;20069;-69
2023/03/02 21:37:58;;;;;;;31.17;15.10;;;;;;;1.40;100.00;102563.66;10392432;28;20065;-69
2023/03/02 21:42:59;;;;;;;29.38;15.68;;;;;;;1.38;100.00;102563.81;10409401;28;20524;-69
2023/03/02 21:48:01;;;;;;;30.27;15.75;;;;;;;1.29;100.00;102561.19;10416704;28;20068;-69
2023/03/02 21:53:01;;;;;;;31.65;15.32;;;;;;;1.22;100.00;102560.94;10416833;28;20033;-70
2023/03/02 21:58:02;;;;;;;34.10;16.60;;;;;;;1.20;100.00;102558.38;10416742;28;20071;-69
2023/03/02 22:03:02;;;;;;;31.80;15.02;;;;;;;0.87;100.00;102513.72;10429597;28;20444;-68
2023/03/02 22:08:03;;;;;;;33.20;15.32;;;;;;;1.13;100.00;102567.25;10431706;28;20048;-68
2023/03/02 22:13:14;;;;;;;30.90;15.30;;;;;;;1.09;100.00;102576.69;10449150;28;20779;-69
2023/03/02 22:18:18;;;;;;;30.10;15.88;;;;;;;0.97;100.00;102554.31;10411235;28;20057;-68
2023/03/02 22:23:24;;;;;;;30.17;14.18;;;;;;;0.90;100.00;102566.78;10392558;28;20057;-69
2023/03/02 22:28:26;;;;;;;37.00;17.77;;;;;;;0.87;100.00;102558.94;10368031;28;20037;-69
2023/03/02 22:33:27;;;;;;;33.58;17.27;;;;;;;0.88;100.00;102569.63;10384896;28;20045;-69
2023/03/02 22:38:28;;;;;;;34.33;18.08;;;;;;;0.83;100.00;102561.13;10333419;28;20084;-69